createdAt,value
2019-05-28T00:02:58.279Z,15.30
2019-05-28T00:07:01.267Z,15.30
2019-05-28T00:11:04.368Z,15.20
2019-05-28T00:15:07.625Z,15.30
2019-05-28T00:19:10.627Z,15.40
2019-05-28T00:23:13.623Z,15.40
2019-05-28T00:27:16.847Z,15.30
2019-05-28T00:31:19.855Z,15.20
2019-05-28T00:35:22.851Z,15.30
2019-05-28T00:39:25.860Z,15.40
2019-05-28T00:43:28.873Z,15.40
2019-05-28T00:47:32.091Z,15.50
2019-05-28T00:51:35.216Z,15.50
2019-05-28T00:55:38.731Z,15.60
2019-05-28T00:59:43.631Z,15.60
2019-05-28T01:03:46.749Z,15.60
2019-05-28T01:07:49.767Z,15.50
2019-05-28T01:11:52.784Z,15.60
2019-05-28T01:15:55.792Z,15.50
2019-05-28T01:19:58.818Z,15.40
2019-05-28T01:24:01.923Z,15.50
2019-05-28T01:28:06.319Z,15.50
2019-05-28T01:32:09.331Z,15.40
2019-05-28T01:36:12.378Z,15.30
2019-05-28T01:40:15.716Z,15.30
2019-05-28T01:44:18.797Z,15.30
2019-05-28T01:48:21.980Z,15.20
2019-05-28T01:52:24.988Z,15.20
2019-05-28T01:56:28.187Z,15.30
2019-05-28T02:00:31.200Z,15.30
2019-05-28T02:04:34.203Z,15.30
2019-05-28T02:08:37.415Z,15.40
2019-05-28T02:12:40.465Z,15.40
2019-05-28T02:16:43.487Z,15.40
2019-05-28T02:20:46.504Z,15.40
2019-05-28T02:24:49.497Z,15.30
2019-05-28T02:28:54.360Z,15.30
2019-05-28T02:32:57.382Z,15.30
2019-05-28T02:37:00.388Z,15.20
2019-05-28T02:41:03.591Z,15.20
2019-05-28T02:45:08.364Z,15.20
2019-05-28T02:49:11.370Z,15.00
2019-05-28T02:53:14.770Z,15.10
2019-05-28T02:57:17.887Z,15.10
2019-05-28T03:01:22.382Z,15.10
2019-05-28T03:05:27.689Z,15.20
2019-05-28T03:09:30.902Z,15.30
2019-05-28T03:13:33.907Z,15.30
2019-05-28T03:17:39.163Z,15.20
2019-05-28T03:21:43.663Z,15.20
2019-05-28T03:25:46.749Z,15.20
2019-05-28T03:29:49.958Z,15.20
2019-05-28T03:33:53.056Z,15.20
2019-05-28T03:37:56.983Z,15.10
2019-05-28T03:42:00.188Z,15.20
2019-05-28T03:46:03.293Z,15.20
2019-05-28T03:50:06.788Z,15.30
2019-05-28T03:54:09.904Z,15.30
2019-05-28T03:58:13.155Z,15.30
2019-05-28T04:02:23.529Z,15.30
2019-05-28T04:06:21.093Z,15.30
2019-05-28T04:10:24.099Z,15.40
2019-05-28T04:14:27.121Z,15.40
2019-05-28T04:18:28.213Z,15.50
2019-05-28T04:22:31.448Z,15.50
2019-05-28T04:26:32.721Z,15.40
2019-05-28T04:30:36.046Z,15.10
2019-05-28T04:34:39.049Z,15.30
2019-05-28T04:38:42.074Z,15.30
2019-05-28T04:42:45.085Z,15.40
2019-05-28T04:46:48.088Z,15.30
2019-05-28T04:50:51.279Z,15.30
2019-05-28T04:54:54.449Z,15.30
2019-05-28T04:58:57.451Z,15.30
2019-05-28T05:03:00.985Z,15.30
2019-05-28T05:07:04.285Z,15.30
2019-05-28T05:11:07.301Z,15.40
2019-05-28T05:15:10.916Z,15.40
2019-05-28T05:19:14.134Z,15.50
2019-05-28T05:23:17.372Z,15.60
2019-05-28T05:27:20.377Z,15.70
2019-05-28T05:31:24.215Z,15.70
2019-05-28T05:35:27.227Z,15.70
2019-05-28T05:39:30.240Z,15.80
2019-05-28T05:43:33.357Z,15.80
2019-05-28T05:47:36.370Z,15.90
2019-05-28T05:51:39.415Z,15.90
2019-05-28T05:55:42.474Z,16.00
2019-05-28T05:59:45.548Z,15.80
2019-05-28T06:03:48.649Z,15.80
2019-05-28T06:07:51.696Z,15.90
2019-05-28T06:11:54.850Z,15.90
2019-05-28T06:15:57.851Z,15.80
2019-05-28T06:20:00.875Z,15.70
2019-05-28T06:24:04.052Z,15.60
2019-05-28T06:28:07.063Z,15.40
2019-05-28T06:32:11.372Z,15.40
2019-05-28T06:36:14.400Z,15.30
2019-05-28T06:40:17.915Z,15.20
2019-05-28T06:44:20.933Z,15.30
2019-05-28T06:48:23.987Z,15.40
2019-05-28T06:52:26.999Z,15.50
2019-05-28T06:56:30.011Z,15.40
2019-05-28T07:00:33.163Z,15.40
2019-05-28T07:04:36.175Z,15.60
2019-05-28T07:08:39.179Z,15.70
2019-05-28T07:12:42.515Z,16.00
2019-05-28T07:16:53.140Z,15.80
2019-05-28T07:20:50.532Z,15.90
2019-05-28T07:24:53.635Z,16.00
2019-05-28T07:28:56.720Z,15.90
2019-05-28T07:33:01.504Z,15.90
2019-05-28T07:37:04.521Z,15.80
2019-05-28T07:41:07.531Z,16.00
2019-05-28T07:45:11.243Z,15.90
2019-05-28T07:49:14.453Z,16.10
2019-05-28T07:53:17.594Z,15.90
2019-05-28T07:57:20.601Z,16.20
2019-05-28T08:01:23.610Z,16.50
2019-05-28T08:05:26.612Z,16.60
2019-05-28T08:09:29.625Z,16.70
2019-05-28T08:13:40.842Z,16.60
2019-05-28T08:17:37.655Z,16.90
2019-05-28T08:21:40.767Z,17.00
2019-05-28T08:25:47.505Z,17.20
2019-05-28T08:29:48.864Z,17.40
2019-05-28T08:33:53.263Z,17.30
2019-05-28T08:37:56.261Z,17.70
2019-05-28T08:41:59.273Z,18.00
2019-05-28T08:46:02.579Z,17.20
2019-05-28T08:50:05.688Z,17.80
2019-05-28T08:54:08.707Z,17.90
2019-05-28T08:58:12.632Z,18.10
2019-05-28T09:02:27.297Z,18.30
2019-05-28T09:06:24.546Z,18.90
2019-05-28T09:10:25.807Z,19.10
2019-05-28T09:14:26.857Z,19.70
2019-05-28T09:18:29.374Z,19.70
2019-05-28T09:22:30.476Z,19.50
2019-05-28T09:26:31.485Z,19.20
2019-05-28T09:30:32.519Z,19.50
2019-05-28T09:34:34.614Z,19.50
2019-05-28T09:38:37.622Z,19.70
2019-05-28T09:42:40.673Z,19.60
2019-05-28T09:46:43.672Z,19.70
2019-05-28T09:50:46.694Z,19.70
2019-05-28T09:54:49.714Z,20.00
2019-05-28T09:58:52.711Z,20.20
2019-05-28T10:02:55.730Z,20.50
2019-05-28T10:06:58.768Z,21.00
2019-05-28T10:11:01.859Z,20.10
2019-05-28T10:15:05.821Z,20.50
2019-05-28T10:19:08.839Z,20.50
2019-05-28T10:23:11.984Z,20.60
2019-05-28T10:27:14.959Z,21.30
2019-05-28T10:31:17.987Z,21.30
2019-05-28T10:35:21.972Z,21.10
2019-05-28T10:39:25.030Z,22.30
2019-05-28T10:43:28.522Z,23.40
2019-05-28T10:47:31.608Z,23.70
2019-05-28T10:51:34.688Z,25.00
2019-05-28T10:55:37.729Z,24.60
2019-05-28T10:59:40.736Z,24.40
2019-05-28T11:03:46.971Z,24.70
2019-05-28T11:07:48.748Z,25.30
2019-05-28T11:11:51.878Z,25.30
2019-05-28T11:15:54.967Z,25.60
2019-05-28T11:19:57.955Z,26.30
2019-05-28T11:24:01.048Z,25.60
2019-05-28T11:28:04.059Z,25.50
2019-05-28T11:32:07.207Z,25.60
2019-05-28T11:36:11.899Z,25.80
2019-05-28T11:40:15.434Z,25.80
2019-05-28T11:44:18.431Z,25.30
2019-05-28T11:48:21.492Z,24.40
2019-05-28T11:52:24.540Z,23.90
2019-05-28T11:56:27.545Z,23.70
2019-05-28T12:00:31.201Z,23.20
2019-05-28T12:04:34.272Z,23.30
2019-05-28T12:08:37.307Z,22.60
2019-05-28T12:12:40.317Z,21.60
2019-05-28T12:16:43.398Z,21.30
2019-05-28T12:20:46.496Z,21.90
2019-05-28T12:24:49.557Z,22.70
2019-05-28T12:28:52.692Z,23.80
2019-05-28T12:32:55.687Z,23.50
2019-05-28T12:36:59.723Z,23.80
2019-05-28T12:41:03.135Z,24.20
2019-05-28T12:45:10.480Z,23.90
2019-05-28T12:49:13.691Z,24.40
2019-05-28T12:53:16.795Z,23.40
2019-05-28T12:57:19.843Z,24.00
2019-05-28T13:01:22.958Z,24.10
2019-05-28T13:05:27.107Z,24.50
2019-05-28T13:09:30.281Z,23.40
2019-05-28T13:13:34.295Z,23.40
2019-05-28T13:17:37.300Z,24.50
2019-05-28T13:21:40.305Z,24.00
2019-05-28T13:25:43.379Z,23.60
2019-05-28T13:29:46.395Z,23.70
2019-05-28T13:33:49.424Z,23.70
2019-05-28T13:37:53.752Z,23.20
2019-05-28T13:41:56.765Z,23.00
2019-05-28T13:45:59.872Z,23.50
2019-05-28T13:50:07.904Z,24.20
2019-05-28T13:54:10.925Z,23.90
2019-05-28T13:58:13.944Z,23.60
2019-05-28T14:02:17.047Z,23.70
2019-05-28T14:06:20.108Z,23.80
2019-05-28T14:10:23.121Z,23.50
2019-05-28T14:14:26.333Z,23.30
2019-05-28T14:18:29.333Z,22.90
2019-05-28T14:22:34.295Z,22.70
2019-05-28T14:26:37.673Z,22.30
2019-05-28T14:30:56.470Z,22.20
2019-05-28T14:34:46.260Z,22.10
2019-05-28T14:39:02.720Z,21.70
2019-05-28T14:42:54.473Z,20.20
2019-05-28T14:46:57.494Z,19.50
2019-05-28T14:51:00.732Z,19.20
2019-05-28T14:55:08.411Z,19.10
2019-05-28T14:59:11.586Z,19.30
2019-05-28T15:03:14.628Z,19.50
2019-05-28T15:07:17.669Z,19.80
2019-05-28T15:11:20.774Z,19.50
2019-05-28T15:15:35.253Z,19.80
2019-05-28T15:19:28.875Z,19.80
2019-05-28T15:23:32.123Z,18.90
2019-05-28T15:27:35.584Z,18.80
2019-05-28T15:31:38.749Z,19.10
2019-05-28T15:35:41.768Z,19.30
2019-05-28T15:39:47.345Z,19.30
2019-05-28T15:43:50.366Z,19.60
2019-05-28T15:47:53.592Z,19.50
2019-05-28T15:52:07.256Z,19.00
2019-05-28T15:56:01.808Z,19.00
2019-05-28T16:00:10.102Z,18.90
2019-05-28T16:04:13.104Z,19.50
2019-05-28T16:08:16.109Z,20.50
2019-05-28T16:12:19.175Z,20.70
2019-05-28T16:16:22.271Z,20.30
2019-05-28T16:20:25.309Z,20.10
2019-05-28T16:24:28.356Z,20.00
2019-05-28T16:28:31.505Z,20.00
2019-05-28T16:32:34.576Z,19.90
2019-05-28T16:36:37.656Z,19.90
2019-05-28T16:40:42.640Z,20.00
2019-05-28T16:44:45.799Z,20.10
2019-05-28T16:48:48.895Z,20.30
2019-05-28T16:52:52.039Z,20.50
2019-05-28T16:56:55.057Z,19.60
2019-05-28T17:01:04.706Z,18.40
2019-05-28T17:05:04.934Z,18.40
2019-05-28T17:09:07.958Z,18.20
2019-05-28T17:13:11.012Z,18.20
2019-05-28T17:17:14.114Z,17.80
2019-05-28T17:21:17.180Z,17.40
2019-05-28T17:25:20.284Z,17.00
2019-05-28T17:29:23.298Z,17.40
2019-05-28T17:33:26.407Z,17.30
2019-05-28T17:37:29.441Z,17.00
2019-05-28T17:41:33.867Z,17.10
2019-05-28T17:45:36.921Z,17.40
2019-05-28T17:49:39.948Z,17.30
2019-05-28T17:53:43.095Z,17.30
2019-05-28T17:57:46.100Z,17.40
2019-05-28T18:01:49.231Z,17.00
2019-05-28T18:05:52.626Z,16.90
2019-05-28T18:09:55.734Z,16.80
2019-05-28T18:13:58.831Z,16.80
2019-05-28T18:18:02.193Z,16.60
2019-05-28T18:22:05.218Z,16.40
2019-05-28T18:26:08.381Z,16.30
2019-05-28T18:30:12.236Z,16.50
2019-05-28T18:34:15.252Z,16.60
2019-05-28T18:38:18.299Z,16.60
2019-05-28T18:42:23.142Z,16.90
2019-05-28T18:46:26.308Z,17.00
2019-05-28T18:50:29.320Z,16.90
2019-05-28T18:54:32.427Z,17.00
2019-05-28T18:58:35.891Z,17.00
2019-05-28T19:02:39.191Z,16.80
2019-05-28T19:06:42.427Z,16.80
2019-05-28T19:10:45.471Z,16.80
2019-05-28T19:14:48.629Z,16.70
2019-05-28T19:18:51.715Z,16.50
2019-05-28T19:22:54.808Z,16.60
2019-05-28T19:26:57.967Z,16.70
2019-05-28T19:31:01.262Z,16.70
2019-05-28T19:35:07.790Z,16.70
2019-05-28T19:39:10.269Z,16.80
2019-05-28T19:43:14.570Z,16.60
2019-05-28T19:47:17.600Z,16.60
2019-05-28T19:51:20.797Z,16.50
2019-05-28T19:55:24.180Z,16.50
2019-05-28T19:59:27.315Z,16.50
2019-05-28T20:03:30.400Z,16.50
2019-05-28T20:07:33.414Z,16.50
2019-05-28T20:11:36.644Z,16.40
2019-05-28T20:15:39.667Z,16.30
2019-05-28T20:19:42.822Z,16.20
2019-05-28T20:23:45.867Z,16.20
2019-05-28T20:27:49.674Z,16.10
2019-05-28T20:31:52.940Z,15.90
2019-05-28T20:35:55.961Z,15.80
2019-05-28T20:39:59.775Z,15.80
2019-05-28T20:44:04.266Z,15.80
2019-05-28T20:48:08.672Z,15.90
2019-05-28T20:52:11.880Z,15.90
2019-05-28T20:56:14.993Z,15.80
2019-05-28T21:00:18.723Z,15.80
2019-05-28T21:04:21.739Z,15.60
2019-05-28T21:08:24.738Z,15.50
2019-05-28T21:12:42.770Z,15.50
2019-05-28T21:16:32.779Z,15.40
2019-05-28T21:20:35.846Z,15.40
2019-05-28T21:24:38.856Z,15.30
2019-05-28T21:28:41.872Z,15.10
2019-05-28T21:32:44.889Z,15.10
2019-05-28T21:36:47.896Z,15.20
2019-05-28T21:40:51.538Z,15.10
2019-05-28T21:44:56.333Z,15.00
2019-05-28T21:48:59.353Z,14.80
2019-05-28T21:53:03.224Z,14.60
2019-05-28T21:57:06.494Z,14.50
2019-05-28T22:01:16.154Z,14.40
2019-05-28T22:05:19.150Z,14.50
2019-05-28T22:09:22.159Z,14.40
2019-05-28T22:13:25.173Z,14.30
2019-05-28T22:17:28.166Z,14.30
2019-05-28T22:21:31.175Z,14.30
2019-05-28T22:25:34.186Z,14.30
2019-05-28T22:29:37.270Z,14.30
2019-05-28T22:33:40.287Z,14.30
2019-05-28T22:37:43.294Z,14.40
2019-05-28T22:41:46.307Z,14.30
2019-05-28T22:45:49.583Z,14.50
2019-05-28T22:49:52.601Z,14.50
2019-05-28T22:53:55.614Z,14.50
2019-05-28T22:57:58.636Z,14.40
2019-05-28T23:02:02.754Z,14.50
2019-05-28T23:06:05.882Z,14.40
2019-05-28T23:10:09.898Z,14.40
2019-05-28T23:14:12.997Z,14.40
2019-05-28T23:18:16.012Z,14.50
2019-05-28T23:22:19.025Z,14.50
2019-05-28T23:26:22.039Z,14.40
2019-05-28T23:30:25.625Z,14.40
2019-05-28T23:34:28.949Z,14.40
2019-05-28T23:38:31.963Z,14.40
2019-05-28T23:42:34.980Z,14.40
2019-05-28T23:46:38.900Z,14.30
2019-05-28T23:50:41.922Z,14.30
2019-05-28T23:54:45.055Z,14.20
2019-05-28T23:58:48.054Z,14.30
